createdAt,value
2018-08-31T00:00:48.568Z,13.27
2018-08-31T00:01:48.719Z,13.29
2018-08-31T00:02:48.872Z,13.12
2018-08-31T00:03:49.021Z,13.11
2018-08-31T00:04:49.172Z,13.09
2018-08-31T00:05:49.327Z,13.09
2018-08-31T00:06:49.475Z,13.11
2018-08-31T00:07:49.624Z,13.02
2018-08-31T00:08:49.773Z,12.97
2018-08-31T00:09:49.922Z,12.97
2018-08-31T00:10:50.076Z,12.92
2018-08-31T00:11:50.224Z,12.95
2018-08-31T00:12:50.375Z,12.89
2018-08-31T00:13:50.526Z,12.81
2018-08-31T00:14:50.676Z,12.93
2018-08-31T00:15:50.828Z,12.89
2018-08-31T00:16:50.980Z,12.84
2018-08-31T00:17:51.130Z,12.78
2018-08-31T00:18:51.288Z,12.85
2018-08-31T00:19:51.442Z,12.84
2018-08-31T00:20:51.594Z,12.81
2018-08-31T00:21:51.747Z,12.93
2018-08-31T00:22:51.898Z,12.95
2018-08-31T00:23:52.045Z,13.04
2018-08-31T00:24:52.199Z,13.12
2018-08-31T00:25:52.348Z,13.11
2018-08-31T00:26:52.500Z,13.17
2018-08-31T00:27:52.651Z,13.25
2018-08-31T00:28:52.802Z,13.37
2018-08-31T00:29:52.960Z,13.33
2018-08-31T00:30:53.105Z,13.51
2018-08-31T00:31:53.263Z,13.43
2018-08-31T00:32:53.412Z,13.36
2018-08-31T00:33:53.564Z,13.30
2018-08-31T00:34:53.715Z,13.25
2018-08-31T00:35:53.864Z,13.20
2018-08-31T00:36:54.015Z,13.14
2018-08-31T00:37:54.166Z,12.99
2018-08-31T00:38:54.317Z,12.95
2018-08-31T00:39:54.471Z,13.03
2018-08-31T00:40:54.621Z,13.02
2018-08-31T00:41:54.772Z,13.14
2018-08-31T00:42:54.922Z,13.12
2018-08-31T00:43:55.073Z,13.06
2018-08-31T00:44:55.224Z,13.07
2018-08-31T00:45:55.375Z,13.18
2018-08-31T00:46:55.525Z,13.18
2018-08-31T00:47:55.674Z,13.06
2018-08-31T00:48:55.827Z,12.96
2018-08-31T00:49:55.977Z,13.00
2018-08-31T00:50:56.129Z,13.03
2018-08-31T00:51:56.280Z,12.96
2018-08-31T00:52:56.427Z,12.92
2018-08-31T00:53:56.580Z,12.93
2018-08-31T00:54:56.731Z,12.84
2018-08-31T00:55:56.879Z,12.82
2018-08-31T00:56:57.033Z,12.81
2018-08-31T00:57:57.191Z,12.81
2018-08-31T00:58:57.338Z,12.95
2018-08-31T00:59:57.489Z,12.97
2018-08-31T01:00:57.639Z,12.92
2018-08-31T01:01:57.789Z,12.92
2018-08-31T01:02:57.941Z,12.88
2018-08-31T01:03:58.092Z,12.92
2018-08-31T01:04:58.242Z,12.84
2018-08-31T01:05:58.392Z,12.81
2018-08-31T01:06:58.544Z,12.89
2018-08-31T01:07:58.694Z,12.71
2018-08-31T01:08:58.847Z,12.75
2018-08-31T01:09:58.995Z,12.67
2018-08-31T01:10:59.144Z,12.63
2018-08-31T01:11:59.298Z,12.51
2018-08-31T01:12:59.456Z,12.44
2018-08-31T01:13:59.602Z,12.41
2018-08-31T01:14:59.754Z,12.45
2018-08-31T01:15:59.905Z,12.37
2018-08-31T01:17:00.054Z,12.46
2018-08-31T01:18:00.206Z,12.44
2018-08-31T01:19:00.360Z,12.24
2018-08-31T01:20:00.508Z,12.39
2018-08-31T01:21:00.657Z,12.42
2018-08-31T01:22:00.811Z,12.38
2018-08-31T01:23:00.962Z,12.37
2018-08-31T01:24:01.109Z,12.39
2018-08-31T01:25:01.258Z,12.46
2018-08-31T01:26:01.406Z,12.34
2018-08-31T01:27:01.562Z,12.42
2018-08-31T01:28:01.707Z,12.19
2018-08-31T01:29:01.857Z,12.37
2018-08-31T01:30:02.007Z,12.41
2018-08-31T01:31:02.159Z,12.24
2018-08-31T01:32:02.308Z,12.38
2018-08-31T01:33:02.462Z,12.48
2018-08-31T01:34:02.609Z,12.29
2018-08-31T01:35:02.760Z,12.29
2018-08-31T01:36:02.910Z,12.37
2018-08-31T01:37:03.059Z,12.26
2018-08-31T01:38:03.212Z,12.39
2018-08-31T01:39:03.365Z,12.34
2018-08-31T01:40:03.511Z,12.44
2018-08-31T01:41:03.664Z,12.44
2018-08-31T01:42:03.816Z,12.38
2018-08-31T01:43:03.966Z,12.30
2018-08-31T01:44:04.118Z,12.31
2018-08-31T01:45:04.268Z,12.39
2018-08-31T01:46:04.417Z,12.39
2018-08-31T01:47:04.567Z,12.38
2018-08-31T01:48:04.718Z,12.49
2018-08-31T01:49:04.871Z,12.48
2018-08-31T01:50:05.020Z,12.54
2018-08-31T01:51:05.171Z,12.48
2018-08-31T01:52:05.321Z,12.48
2018-08-31T01:53:05.469Z,12.48
2018-08-31T01:54:05.619Z,12.46
2018-08-31T01:55:05.774Z,12.52
2018-08-31T01:56:05.924Z,12.48
2018-08-31T01:57:06.070Z,12.63
2018-08-31T01:58:06.222Z,12.66
2018-08-31T01:59:06.374Z,12.64
2018-08-31T02:00:06.532Z,12.64
2018-08-31T02:01:06.678Z,12.57
2018-08-31T02:02:06.827Z,12.54
2018-08-31T02:03:06.988Z,12.56
2018-08-31T02:04:07.191Z,12.46
2018-08-31T02:05:07.280Z,12.44
2018-08-31T02:06:07.428Z,12.41
2018-08-31T02:07:07.579Z,12.45
2018-08-31T02:08:07.728Z,12.51
2018-08-31T02:09:07.879Z,12.54
2018-08-31T02:10:08.029Z,12.51
2018-08-31T02:11:08.179Z,12.45
2018-08-31T02:12:08.332Z,12.49
2018-08-31T02:13:08.480Z,12.46
2018-08-31T02:14:08.634Z,12.38
2018-08-31T02:15:08.782Z,12.41
2018-08-31T02:16:08.933Z,12.54
2018-08-31T02:17:09.081Z,12.44
2018-08-31T02:18:09.233Z,12.46
2018-08-31T02:19:09.384Z,12.51
2018-08-31T02:20:09.534Z,12.45
2018-08-31T02:21:09.684Z,12.37
2018-08-31T02:22:09.833Z,12.27
2018-08-31T02:23:09.984Z,12.42
2018-08-31T02:24:10.133Z,12.30
2018-08-31T02:25:10.282Z,12.30
2018-08-31T02:26:10.434Z,12.20
2018-08-31T02:27:10.585Z,12.12
2018-08-31T02:28:10.749Z,12.15
2018-08-31T02:29:10.879Z,12.06
2018-08-31T02:30:11.028Z,12.01
2018-08-31T02:31:11.178Z,12.01
2018-08-31T02:32:11.329Z,12.02
2018-08-31T02:33:11.478Z,12.05
2018-08-31T02:34:11.629Z,11.97
2018-08-31T02:35:11.776Z,12.01
2018-08-31T02:36:11.927Z,12.01
2018-08-31T02:37:12.077Z,12.02
2018-08-31T02:38:12.227Z,11.96
2018-08-31T02:39:12.429Z,12.04
2018-08-31T02:40:12.528Z,11.94
2018-08-31T02:41:12.678Z,11.90
2018-08-31T02:42:12.829Z,11.93
2018-08-31T02:43:12.980Z,11.99
2018-08-31T02:44:13.129Z,11.96
2018-08-31T02:45:13.281Z,11.99
2018-08-31T02:46:13.431Z,11.99
2018-08-31T02:47:13.583Z,11.97
2018-08-31T02:48:13.735Z,11.97
2018-08-31T02:49:13.884Z,11.89
2018-08-31T02:50:14.035Z,11.90
2018-08-31T02:51:14.185Z,11.94
2018-08-31T02:52:14.338Z,12.02
2018-08-31T02:53:14.490Z,12.05
2018-08-31T02:54:14.640Z,11.97
2018-08-31T02:55:14.790Z,11.90
2018-08-31T02:56:14.942Z,11.96
2018-08-31T02:57:15.092Z,11.87
2018-08-31T02:58:15.245Z,11.93
2018-08-31T02:59:15.395Z,11.85
2018-08-31T03:00:15.546Z,11.96
2018-08-31T03:01:15.695Z,11.94
2018-08-31T03:02:15.846Z,11.99
2018-08-31T03:03:16.001Z,12.02
2018-08-31T03:04:16.149Z,12.09
2018-08-31T03:05:16.306Z,12.15
2018-08-31T03:06:16.448Z,12.21
2018-08-31T03:07:16.600Z,12.16
2018-08-31T03:08:16.750Z,12.20
2018-08-31T03:09:16.899Z,12.34
2018-08-31T03:10:17.047Z,12.39
2018-08-31T03:11:17.199Z,12.38
2018-08-31T03:12:17.350Z,12.38
2018-08-31T03:13:17.500Z,12.41
2018-08-31T03:14:17.649Z,12.49
2018-08-31T03:15:17.800Z,12.42
2018-08-31T03:16:17.951Z,12.46
2018-08-31T03:17:18.101Z,12.51
2018-08-31T03:18:18.255Z,12.31
2018-08-31T03:19:18.401Z,12.41
2018-08-31T03:20:18.555Z,12.23
2018-08-31T03:21:18.807Z,12.20
2018-08-31T03:22:18.855Z,12.01
2018-08-31T03:23:19.007Z,11.90
2018-08-31T03:24:19.157Z,11.99
2018-08-31T03:25:19.307Z,11.97
2018-08-31T03:26:19.454Z,11.86
2018-08-31T03:27:19.610Z,11.86
2018-08-31T03:28:19.761Z,11.89
2018-08-31T03:29:19.908Z,11.94
2018-08-31T03:30:20.063Z,12.04
2018-08-31T03:31:20.211Z,12.02
2018-08-31T03:32:20.363Z,12.04
2018-08-31T03:33:20.510Z,12.04
2018-08-31T03:34:20.665Z,11.96
2018-08-31T03:35:20.816Z,11.99
2018-08-31T03:36:20.966Z,12.04
2018-08-31T03:37:21.119Z,11.90
2018-08-31T03:38:21.266Z,11.87
2018-08-31T03:39:21.415Z,11.85
2018-08-31T03:40:21.565Z,11.67
2018-08-31T03:41:21.719Z,11.65
2018-08-31T03:42:21.870Z,11.71
2018-08-31T03:43:22.018Z,11.65
2018-08-31T03:44:22.169Z,11.65
2018-08-31T03:45:22.318Z,11.67
2018-08-31T03:46:22.473Z,11.49
2018-08-31T03:47:22.622Z,11.62
2018-08-31T03:48:22.784Z,11.61
2018-08-31T03:49:22.922Z,11.64
2018-08-31T03:50:23.073Z,11.65
2018-08-31T03:51:23.223Z,11.87
2018-08-31T03:52:23.372Z,11.80
2018-08-31T03:53:23.525Z,11.82
2018-08-31T03:54:23.673Z,11.97
2018-08-31T03:55:23.825Z,11.96
2018-08-31T03:56:23.974Z,11.87
2018-08-31T03:57:24.125Z,11.93
2018-08-31T03:58:24.274Z,11.96
2018-08-31T03:59:24.427Z,11.86
2018-08-31T04:00:24.577Z,11.96
2018-08-31T04:01:24.731Z,11.99
2018-08-31T04:02:24.878Z,12.02
2018-08-31T04:03:25.026Z,12.02
2018-08-31T04:04:25.176Z,12.02
2018-08-31T04:05:25.329Z,12.09
2018-08-31T04:06:25.479Z,12.04
2018-08-31T04:07:25.631Z,12.05
2018-08-31T04:08:25.781Z,12.04
2018-08-31T04:09:25.933Z,12.13
2018-08-31T04:10:26.082Z,12.15
2018-08-31T04:11:26.233Z,12.05
2018-08-31T04:12:26.383Z,12.16
2018-08-31T04:13:26.531Z,12.20
2018-08-31T04:14:26.684Z,12.21
2018-08-31T04:15:26.837Z,12.30
2018-08-31T04:16:26.987Z,12.16
2018-08-31T04:17:27.139Z,12.11
2018-08-31T04:18:27.287Z,11.97
2018-08-31T04:19:27.436Z,12.12
2018-08-31T04:20:27.587Z,12.09
2018-08-31T04:21:27.742Z,12.02
2018-08-31T04:22:27.894Z,12.02
2018-08-31T04:23:28.043Z,11.97
2018-08-31T04:24:28.191Z,11.87
2018-08-31T04:25:28.343Z,11.89
2018-08-31T04:26:28.497Z,12.02
2018-08-31T04:27:28.646Z,12.01
2018-08-31T04:28:28.804Z,11.87
2018-08-31T04:29:28.948Z,11.87
2018-08-31T04:30:29.099Z,11.89
2018-08-31T04:31:29.250Z,11.75
2018-08-31T04:32:29.400Z,11.94
2018-08-31T04:33:29.552Z,11.99
2018-08-31T04:34:29.706Z,11.89
2018-08-31T04:35:29.854Z,11.90
2018-08-31T04:36:30.002Z,11.97
2018-08-31T04:37:30.157Z,11.90
2018-08-31T04:38:30.303Z,11.93
2018-08-31T04:39:30.454Z,11.85
2018-08-31T04:40:30.604Z,11.86
2018-08-31T04:41:30.754Z,11.86
2018-08-31T04:42:30.908Z,11.71
2018-08-31T04:43:31.070Z,11.72
2018-08-31T04:44:31.216Z,11.65
2018-08-31T04:45:31.370Z,11.67
2018-08-31T04:46:31.515Z,11.70
2018-08-31T04:47:31.665Z,11.72
2018-08-31T04:48:31.820Z,11.71
2018-08-31T04:49:31.967Z,11.61
2018-08-31T04:50:32.190Z,11.61
2018-08-31T04:51:32.272Z,11.50
2018-08-31T04:52:32.423Z,11.56
2018-08-31T04:53:32.573Z,11.46
2018-08-31T04:54:32.726Z,11.57
2018-08-31T04:55:32.873Z,11.57
2018-08-31T04:56:33.023Z,11.57
2018-08-31T04:57:33.174Z,11.64
2018-08-31T04:58:33.323Z,11.65
2018-08-31T04:59:33.477Z,11.65
2018-08-31T05:00:33.625Z,11.64
2018-08-31T05:01:33.774Z,11.65
2018-08-31T05:02:33.924Z,11.57
2018-08-31T05:03:34.073Z,11.57
2018-08-31T05:04:34.226Z,11.62
2018-08-31T05:05:34.376Z,11.67
2018-08-31T05:06:34.530Z,11.78
2018-08-31T05:07:34.680Z,11.86
2018-08-31T05:08:34.832Z,11.89
2018-08-31T05:09:34.981Z,11.96
2018-08-31T05:10:35.131Z,11.94
2018-08-31T05:11:35.280Z,12.01
2018-08-31T05:12:35.431Z,12.01
2018-08-31T05:13:35.583Z,12.01
2018-08-31T05:14:35.734Z,11.96
2018-08-31T05:15:35.884Z,11.90
2018-08-31T05:16:36.037Z,11.96
2018-08-31T05:17:36.183Z,11.90
2018-08-31T05:18:36.334Z,11.99
2018-08-31T05:19:36.485Z,12.08
2018-08-31T05:20:36.635Z,12.09
2018-08-31T05:21:36.786Z,12.16
2018-08-31T05:22:37.021Z,12.26
2018-08-31T05:23:37.088Z,12.19
2018-08-31T05:24:37.240Z,12.20
2018-08-31T05:25:37.388Z,12.19
2018-08-31T05:26:37.542Z,12.19
2018-08-31T05:27:37.690Z,12.15
2018-08-31T05:28:37.843Z,12.20
2018-08-31T05:29:37.992Z,12.37
2018-08-31T05:30:38.144Z,12.37
2018-08-31T05:31:38.293Z,12.33
2018-08-31T05:32:38.449Z,12.49
2018-08-31T05:33:38.597Z,12.46
2018-08-31T05:34:38.750Z,12.56
2018-08-31T05:35:38.903Z,12.46
2018-08-31T05:36:39.051Z,12.67
2018-08-31T05:37:39.199Z,12.74
2018-08-31T05:38:39.368Z,12.77
2018-08-31T05:39:39.501Z,12.79
2018-08-31T05:40:39.653Z,12.88
2018-08-31T05:41:39.805Z,12.92
2018-08-31T05:42:39.955Z,12.85
2018-08-31T05:43:40.108Z,12.84
2018-08-31T05:44:40.264Z,12.95
2018-08-31T05:45:40.417Z,12.95
2018-08-31T05:46:40.564Z,13.06
2018-08-31T05:47:40.714Z,13.07
2018-08-31T05:48:40.864Z,12.99
2018-08-31T05:49:41.016Z,13.02
2018-08-31T05:50:41.169Z,13.11
2018-08-31T05:51:41.318Z,13.14
2018-08-31T05:52:41.466Z,13.21
2018-08-31T05:53:41.662Z,13.37
2018-08-31T05:54:41.765Z,13.30
2018-08-31T05:55:41.916Z,13.27
2018-08-31T05:56:42.066Z,13.15
2018-08-31T05:57:42.218Z,13.21
2018-08-31T05:58:42.369Z,13.38
2018-08-31T05:59:42.520Z,13.25
2018-08-31T06:00:42.676Z,13.18
2018-08-31T06:01:42.825Z,13.00
2018-08-31T06:02:42.975Z,13.02
2018-08-31T06:03:43.126Z,13.12
2018-08-31T06:04:43.276Z,13.11
2018-08-31T06:05:43.428Z,13.15
2018-08-31T06:06:43.581Z,13.20
2018-08-31T06:07:43.732Z,13.27
2018-08-31T06:08:43.883Z,13.40
2018-08-31T06:09:44.033Z,13.47
2018-08-31T06:10:44.184Z,13.46
2018-08-31T06:11:44.394Z,13.55
2018-08-31T06:12:44.487Z,13.55
2018-08-31T06:13:44.636Z,13.58
2018-08-31T06:14:44.788Z,13.76
2018-08-31T06:15:44.939Z,13.76
2018-08-31T06:16:45.095Z,13.87
2018-08-31T06:17:45.246Z,13.76
2018-08-31T06:18:45.399Z,13.76
2018-08-31T06:19:45.549Z,13.84
2018-08-31T06:20:45.698Z,13.96
2018-08-31T06:21:45.849Z,13.89
2018-08-31T06:22:46.007Z,13.92
2018-08-31T06:23:46.153Z,13.94
2018-08-31T06:24:46.306Z,13.88
2018-08-31T06:25:46.457Z,13.87
2018-08-31T06:26:46.606Z,14.07
2018-08-31T06:27:46.759Z,14.02
2018-08-31T06:28:46.909Z,14.10
2018-08-31T06:29:47.063Z,14.01
2018-08-31T06:30:47.209Z,14.04
2018-08-31T06:31:47.366Z,14.06
2018-08-31T06:32:47.598Z,14.12
2018-08-31T06:33:47.701Z,14.16
2018-08-31T06:34:47.821Z,14.24
2018-08-31T06:35:47.973Z,14.32
2018-08-31T06:36:48.124Z,14.28
2018-08-31T06:37:48.277Z,14.25
2018-08-31T06:38:48.427Z,14.29
2018-08-31T06:39:48.580Z,14.24
2018-08-31T06:40:48.751Z,14.25
2018-08-31T06:41:48.890Z,14.24
2018-08-31T06:42:49.042Z,14.21
2018-08-31T06:43:49.196Z,14.31
2018-08-31T06:44:49.345Z,14.44
2018-08-31T06:45:49.499Z,14.46
2018-08-31T06:46:49.646Z,14.53
2018-08-31T06:47:49.803Z,14.65
2018-08-31T06:48:49.952Z,14.84
2018-08-31T06:49:50.103Z,14.78
2018-08-31T06:50:50.258Z,14.71
2018-08-31T06:51:50.409Z,14.64
2018-08-31T06:52:50.563Z,14.54
2018-08-31T06:53:50.716Z,14.67
2018-08-31T06:54:50.862Z,14.61
2018-08-31T06:55:51.014Z,14.68
2018-08-31T06:56:51.172Z,14.57
2018-08-31T06:57:51.321Z,14.61
2018-08-31T06:58:51.470Z,14.54
2018-08-31T06:59:51.625Z,14.53
2018-08-31T07:00:51.778Z,14.57
2018-08-31T07:01:51.927Z,14.71
2018-08-31T07:02:52.079Z,14.67
2018-08-31T07:03:52.272Z,14.71
2018-08-31T07:04:52.384Z,14.83
2018-08-31T07:05:52.537Z,14.84
2018-08-31T07:06:52.688Z,14.93
2018-08-31T07:07:52.843Z,15.11
2018-08-31T07:08:52.993Z,15.08
2018-08-31T07:09:53.155Z,15.23
2018-08-31T07:10:53.298Z,15.26
2018-08-31T07:11:53.455Z,15.09
2018-08-31T07:12:53.607Z,15.02
2018-08-31T07:13:53.760Z,15.09
2018-08-31T07:14:53.912Z,15.21
2018-08-31T07:15:54.063Z,15.17
2018-08-31T07:16:54.216Z,15.13
2018-08-31T07:17:54.370Z,15.11
2018-08-31T07:18:54.525Z,15.06
2018-08-31T07:19:54.746Z,15.12
2018-08-31T07:20:54.851Z,15.08
2018-08-31T07:21:54.976Z,15.08
2018-08-31T07:22:55.129Z,15.03
2018-08-31T07:23:55.284Z,15.06
2018-08-31T07:24:55.437Z,15.09
2018-08-31T07:25:55.590Z,15.09
2018-08-31T07:26:55.780Z,15.26
2018-08-31T07:27:55.899Z,15.41
2018-08-31T07:28:56.049Z,15.42
2018-08-31T07:29:56.200Z,15.46
2018-08-31T07:30:56.356Z,15.43
2018-08-31T07:31:56.507Z,15.46
2018-08-31T07:32:56.662Z,15.48
2018-08-31T07:33:56.815Z,15.46
2018-08-31T07:34:56.968Z,15.48
2018-08-31T07:35:57.122Z,15.66
2018-08-31T07:36:57.276Z,15.67
2018-08-31T07:37:57.462Z,15.74
2018-08-31T07:38:57.578Z,15.66
2018-08-31T07:39:57.728Z,15.54
2018-08-31T07:40:57.883Z,15.60
2018-08-31T07:41:58.041Z,15.85
2018-08-31T07:42:58.189Z,15.85
2018-08-31T07:43:58.343Z,15.84
2018-08-31T07:44:58.498Z,15.81
2018-08-31T07:45:58.647Z,15.97
2018-08-31T07:46:58.802Z,16.15
2018-08-31T07:47:58.976Z,16.30
2018-08-31T07:48:59.109Z,16.20
2018-08-31T07:49:59.261Z,16.35
2018-08-31T07:50:59.415Z,16.49
2018-08-31T07:51:59.567Z,16.50
2018-08-31T07:52:59.726Z,16.48
2018-08-31T07:53:59.986Z,16.70
2018-08-31T07:55:00.033Z,16.86
2018-08-31T07:56:00.188Z,16.80
2018-08-31T07:57:00.341Z,17.06
2018-08-31T07:58:00.493Z,16.92
2018-08-31T07:59:00.645Z,16.95
2018-08-31T08:00:00.804Z,16.92
2018-08-31T08:01:00.953Z,16.55
2018-08-31T08:02:01.110Z,16.49
2018-08-31T08:03:01.259Z,16.56
2018-08-31T08:04:01.413Z,16.52
2018-08-31T08:05:01.569Z,16.70
2018-08-31T08:06:01.723Z,16.67
2018-08-31T08:07:01.876Z,16.71
2018-08-31T08:08:02.031Z,16.85
2018-08-31T08:09:02.185Z,16.88
2018-08-31T08:10:02.342Z,17.07
2018-08-31T08:11:02.492Z,17.18
2018-08-31T08:12:02.642Z,17.14
2018-08-31T08:13:02.795Z,17.13
2018-08-31T08:14:02.948Z,17.17
2018-08-31T08:15:03.103Z,17.08
2018-08-31T08:16:03.259Z,16.78
2018-08-31T08:17:03.416Z,16.78
2018-08-31T08:18:03.573Z,16.80
2018-08-31T08:19:03.740Z,16.86
2018-08-31T08:20:03.877Z,16.77
2018-08-31T08:21:04.035Z,16.53
2018-08-31T08:22:04.185Z,16.59
2018-08-31T08:23:04.339Z,16.30
2018-08-31T08:24:04.492Z,16.27
2018-08-31T08:25:04.647Z,16.26
2018-08-31T08:26:04.803Z,16.41
2018-08-31T08:27:04.957Z,16.18
2018-08-31T08:28:05.111Z,16.27
2018-08-31T08:29:05.263Z,16.41
2018-08-31T08:30:05.417Z,16.33
2018-08-31T08:31:05.571Z,16.48
2018-08-31T08:32:05.722Z,16.31
2018-08-31T08:33:05.877Z,16.11
2018-08-31T08:34:06.031Z,15.94
2018-08-31T08:35:06.185Z,16.00
2018-08-31T08:36:06.446Z,15.89
2018-08-31T08:37:06.494Z,15.85
2018-08-31T08:38:06.645Z,15.97
2018-08-31T08:39:06.801Z,15.99
2018-08-31T08:40:06.950Z,16.18
2018-08-31T08:41:07.107Z,16.30
2018-08-31T08:42:07.305Z,16.14
2018-08-31T08:43:07.529Z,16.26
2018-08-31T08:44:07.554Z,16.34
2018-08-31T08:45:07.709Z,16.25
2018-08-31T08:46:07.869Z,16.20
2018-08-31T08:47:08.015Z,16.23
2018-08-31T08:48:08.219Z,16.44
2018-08-31T08:49:08.322Z,16.48
2018-08-31T08:50:08.474Z,16.49
2018-08-31T08:51:08.629Z,16.40
2018-08-31T08:52:08.785Z,16.48
2018-08-31T08:53:08.934Z,16.58
2018-08-31T08:54:09.087Z,16.60
2018-08-31T08:55:09.246Z,16.58
2018-08-31T08:56:09.394Z,16.80
2018-08-31T08:57:09.549Z,16.73
2018-08-31T08:58:09.727Z,16.77
2018-08-31T08:59:09.856Z,16.90
2018-08-31T09:00:10.006Z,16.88
2018-08-31T09:01:10.162Z,16.95
2018-08-31T09:02:10.315Z,17.06
2018-08-31T09:03:10.469Z,17.20
2018-08-31T09:04:10.622Z,17.18
2018-08-31T09:05:10.775Z,17.13
2018-08-31T09:06:10.931Z,17.14
2018-08-31T09:07:11.087Z,17.22
2018-08-31T09:08:11.234Z,17.29
2018-08-31T09:09:11.390Z,17.28
2018-08-31T09:10:11.544Z,17.50
2018-08-31T09:11:11.696Z,17.53
2018-08-31T09:12:11.860Z,17.62
2018-08-31T09:13:12.003Z,17.48
2018-08-31T09:14:12.158Z,17.55
2018-08-31T09:15:12.311Z,17.62
2018-08-31T09:16:12.464Z,17.67
2018-08-31T09:17:12.621Z,17.63
2018-08-31T09:18:12.774Z,17.62
2018-08-31T09:19:12.929Z,17.54
2018-08-31T09:20:13.088Z,17.67
2018-08-31T09:21:13.237Z,17.73
2018-08-31T09:22:13.389Z,17.55
2018-08-31T09:23:13.545Z,17.38
2018-08-31T09:24:13.699Z,17.55
2018-08-31T09:25:13.854Z,17.74
2018-08-31T09:26:14.007Z,17.74
2018-08-31T09:27:14.161Z,17.70
2018-08-31T09:28:14.315Z,17.91
2018-08-31T09:29:14.469Z,17.84
2018-08-31T09:30:14.625Z,18.07
2018-08-31T09:31:14.781Z,18.28
2018-08-31T09:32:14.933Z,18.42
2018-08-31T09:33:15.088Z,18.55
2018-08-31T09:34:15.248Z,18.64
2018-08-31T09:35:15.398Z,18.54
2018-08-31T09:36:15.552Z,18.59
2018-08-31T09:37:15.708Z,18.59
2018-08-31T09:38:15.888Z,18.58
2018-08-31T09:39:16.018Z,18.67
2018-08-31T09:40:16.170Z,18.65
2018-08-31T09:41:16.323Z,18.68
2018-08-31T09:42:16.484Z,18.64
2018-08-31T09:43:16.633Z,18.58
2018-08-31T09:44:16.788Z,18.73
2018-08-31T09:45:16.945Z,18.90
2018-08-31T09:46:17.099Z,18.82
2018-08-31T09:47:17.254Z,18.82
2018-08-31T09:48:17.407Z,19.15
2018-08-31T09:49:17.566Z,19.01
2018-08-31T09:50:17.722Z,19.21
2018-08-31T09:51:17.875Z,19.10
2018-08-31T09:52:18.031Z,19.25
2018-08-31T09:53:18.186Z,19.35
2018-08-31T09:54:18.345Z,19.05
2018-08-31T09:55:18.498Z,19.13
2018-08-31T09:56:18.655Z,19.18
2018-08-31T09:57:18.862Z,18.92
2018-08-31T09:58:18.964Z,18.91
2018-08-31T09:59:19.119Z,19.05
2018-08-31T10:00:19.276Z,18.97
2018-08-31T10:01:19.433Z,19.18
2018-08-31T10:02:19.585Z,19.08
2018-08-31T10:03:19.739Z,18.99
2018-08-31T10:04:19.895Z,18.94
2018-08-31T10:05:20.051Z,18.77
2018-08-31T10:06:20.206Z,18.77
2018-08-31T10:07:20.365Z,18.79
2018-08-31T10:08:20.521Z,18.79
2018-08-31T10:09:20.674Z,18.83
2018-08-31T10:10:20.830Z,18.79
2018-08-31T10:11:20.984Z,18.77
2018-08-31T10:12:21.143Z,18.86
2018-08-31T10:13:21.338Z,18.87
2018-08-31T10:14:21.454Z,18.79
2018-08-31T10:15:21.610Z,19.01
2018-08-31T10:16:21.764Z,19.02
2018-08-31T10:17:21.917Z,19.02
2018-08-31T10:18:22.073Z,19.01
2018-08-31T10:19:22.229Z,18.99
2018-08-31T10:20:22.420Z,18.99
2018-08-31T10:21:22.539Z,18.84
2018-08-31T10:22:22.694Z,18.77
2018-08-31T10:23:22.849Z,18.95
2018-08-31T10:24:23.007Z,18.95
2018-08-31T10:25:23.165Z,18.97
2018-08-31T10:26:23.318Z,18.91
2018-08-31T10:27:23.494Z,18.82
2018-08-31T10:28:23.648Z,19.02
2018-08-31T10:29:23.805Z,19.14
2018-08-31T10:30:23.959Z,19.14
2018-08-31T10:31:24.117Z,19.24
2018-08-31T10:32:24.300Z,19.06
2018-08-31T10:33:24.426Z,18.98
2018-08-31T10:34:24.580Z,18.79
2018-08-31T10:35:24.734Z,18.80
2018-08-31T10:36:24.891Z,18.79
2018-08-31T10:37:25.045Z,18.90
2018-08-31T10:38:25.202Z,19.17
2018-08-31T10:39:25.356Z,19.31
2018-08-31T10:40:25.515Z,19.47
2018-08-31T10:41:25.668Z,19.47
2018-08-31T10:42:25.823Z,19.72
2018-08-31T10:43:25.979Z,19.58
2018-08-31T10:44:26.135Z,19.57
2018-08-31T10:45:26.290Z,19.69
2018-08-31T10:46:26.482Z,19.97
2018-08-31T10:47:26.602Z,20.13
2018-08-31T10:48:26.757Z,20.33
2018-08-31T10:49:26.912Z,20.42
2018-08-31T10:50:27.068Z,20.58
2018-08-31T10:51:27.228Z,20.41
2018-08-31T10:52:27.376Z,20.46
2018-08-31T10:53:27.530Z,20.28
2018-08-31T10:54:27.687Z,20.28
2018-08-31T10:55:27.843Z,20.65
2018-08-31T10:56:28.000Z,20.77
2018-08-31T10:57:28.158Z,20.87
2018-08-31T10:58:28.314Z,20.79
2018-08-31T10:59:28.474Z,20.91
2018-08-31T11:00:28.627Z,21.05
2018-08-31T11:01:28.784Z,21.16
2018-08-31T11:02:28.940Z,21.14
2018-08-31T11:03:29.095Z,20.91
2018-08-31T11:04:29.253Z,20.59
2018-08-31T11:05:29.409Z,20.31
2018-08-31T11:06:29.566Z,20.30
2018-08-31T11:07:29.723Z,20.39
2018-08-31T11:08:29.880Z,20.56
2018-08-31T11:09:30.036Z,20.54
2018-08-31T11:10:30.192Z,20.68
2018-08-31T11:11:30.351Z,20.49
2018-08-31T11:12:30.556Z,20.58
2018-08-31T11:13:30.663Z,20.84
2018-08-31T11:14:30.821Z,20.74
2018-08-31T11:15:30.978Z,20.77
2018-08-31T11:16:31.134Z,20.72
2018-08-31T11:17:31.293Z,20.76
2018-08-31T11:18:31.448Z,20.84
2018-08-31T11:19:31.610Z,20.81
2018-08-31T11:20:31.767Z,20.95
2018-08-31T11:21:31.921Z,20.86
2018-08-31T11:22:32.075Z,20.87
2018-08-31T11:23:32.232Z,21.13
2018-08-31T11:24:32.391Z,21.39
2018-08-31T11:25:32.548Z,21.60
2018-08-31T11:26:32.708Z,21.97
2018-08-31T11:27:32.862Z,21.74
2018-08-31T11:28:33.032Z,21.72
2018-08-31T11:29:33.185Z,21.53
2018-08-31T11:30:33.346Z,21.53
2018-08-31T11:31:33.503Z,21.74
2018-08-31T11:32:33.657Z,21.75
2018-08-31T11:33:33.816Z,21.71
2018-08-31T11:34:33.974Z,21.75
2018-08-31T11:35:34.131Z,21.76
2018-08-31T11:36:34.290Z,21.85
2018-08-31T11:37:34.447Z,21.95
2018-08-31T11:38:34.607Z,21.74
2018-08-31T11:39:34.760Z,21.79
2018-08-31T11:40:34.919Z,21.90
2018-08-31T11:41:35.078Z,22.02
2018-08-31T11:42:35.234Z,22.16
2018-08-31T11:43:35.502Z,22.10
2018-08-31T11:44:35.547Z,21.69
2018-08-31T11:45:35.707Z,21.60
2018-08-31T11:46:35.865Z,21.74
2018-08-31T11:47:36.023Z,21.79
2018-08-31T11:48:36.196Z,21.92
2018-08-31T11:49:36.332Z,21.98
2018-08-31T11:50:36.486Z,22.23
2018-08-31T11:51:36.646Z,22.46
2018-08-31T11:52:36.803Z,22.09
2018-08-31T11:53:36.960Z,22.13
2018-08-31T11:54:37.117Z,22.23
2018-08-31T11:55:37.275Z,22.31
2018-08-31T11:56:37.436Z,22.34
2018-08-31T11:57:37.593Z,22.53
2018-08-31T11:58:37.753Z,22.43
2018-08-31T11:59:37.906Z,22.64
2018-08-31T12:00:38.065Z,22.49
2018-08-31T12:01:38.224Z,22.59
2018-08-31T12:02:38.384Z,22.74
2018-08-31T12:03:38.540Z,22.68
2018-08-31T12:04:38.701Z,22.57
2018-08-31T12:05:38.858Z,22.65
2018-08-31T12:06:39.020Z,22.69
2018-08-31T12:07:39.185Z,22.60
2018-08-31T12:08:39.337Z,22.80
2018-08-31T12:09:39.494Z,22.75
2018-08-31T12:10:39.653Z,22.89
2018-08-31T12:11:39.811Z,22.60
2018-08-31T12:12:39.974Z,22.57
2018-08-31T12:13:40.129Z,22.47
2018-08-31T12:14:40.286Z,22.32
2018-08-31T12:15:40.449Z,22.49
2018-08-31T12:16:40.616Z,22.43
2018-08-31T12:17:40.766Z,22.16
2018-08-31T12:18:40.941Z,21.98
2018-08-31T12:19:41.099Z,21.60
2018-08-31T12:20:41.255Z,21.35
2018-08-31T12:21:41.418Z,21.16
2018-08-31T12:22:41.574Z,20.91
2018-08-31T12:23:41.732Z,20.66
2018-08-31T12:24:41.897Z,20.58
2018-08-31T12:25:42.049Z,20.46
2018-08-31T12:26:42.211Z,20.66
2018-08-31T12:27:42.367Z,20.93
2018-08-31T12:28:42.529Z,20.54
2018-08-31T12:29:42.684Z,20.74
2018-08-31T12:30:42.842Z,20.91
2018-08-31T12:31:42.998Z,21.06
2018-08-31T12:32:43.156Z,21.36
2018-08-31T12:33:43.312Z,21.32
2018-08-31T12:34:43.469Z,21.48
2018-08-31T12:35:43.626Z,21.30
2018-08-31T12:36:43.784Z,21.42
2018-08-31T12:37:43.942Z,21.57
2018-08-31T12:38:44.099Z,21.69
2018-08-31T12:39:44.258Z,21.53
2018-08-31T12:40:44.414Z,21.35
2018-08-31T12:41:44.574Z,21.57
2018-08-31T12:42:44.732Z,21.50
2018-08-31T12:43:44.909Z,21.38
2018-08-31T12:44:45.044Z,21.24
2018-08-31T12:45:45.203Z,21.35
2018-08-31T12:46:45.359Z,21.27
2018-08-31T12:47:45.515Z,21.64
2018-08-31T12:48:45.672Z,21.88
2018-08-31T12:49:45.833Z,22.09
2018-08-31T12:50:45.993Z,22.31
2018-08-31T12:51:46.153Z,22.71
2018-08-31T12:52:46.308Z,22.74
2018-08-31T12:53:46.464Z,22.86
2018-08-31T12:54:46.622Z,23.01